Terminal Aerodrome Forecast
Issued by NWS Sterling, VA

Current Version | Previous Version | Text Only | Print | Product List | Glossary Off
Versions: 1 2 3 4 5 6 7 8 9 10 11 12 13 14 15 16 17 18 19 20 21 22 23 24 25 26 27

000
FTUS41 KLWX 270238 AAA
TAFDCA
TAF AMD
KDCA 270238Z 2703/2724 36013G18KT 4SM -RA FEW017 BKN040 OVC045
     FM270500 34012G20KT 5SM -RA OVC015
     FM271200 34008KT 5SM -RA OVC015
     FM271600 34009KT P6SM OVC025
     FM271800 34009KT P6SM BKN050
     FM272300 33005KT P6SM BKN050=

USA.gov is the U.S. government's official web portal to all federal, state and local government web resources and services.